createdAt,value
2017-08-20T02:12:51.294Z,158.93
2017-08-20T02:21:07.630Z,75.30
2017-08-20T02:23:36.029Z,62.17
2017-08-20T02:26:04.478Z,62.90
2017-08-20T02:28:41.749Z,77.87
2017-08-20T02:31:10.942Z,135.60
2017-08-20T02:33:40.142Z,59.20
2017-08-20T02:36:08.546Z,51.47
2017-08-20T02:38:36.940Z,143.60
2017-08-20T02:41:26.407Z,238.57
2017-08-20T02:43:54.923Z,130.77
2017-08-20T02:46:23.320Z,169.53
2017-08-20T02:48:52.494Z,146.97
2017-08-20T02:51:20.949Z,195.57
2017-08-20T02:53:49.351Z,204.50
2017-08-20T02:56:17.731Z,169.70
2017-08-20T02:58:46.186Z,238.57
2017-08-20T03:01:14.582Z,179.33
2017-08-20T03:03:43.052Z,117.87
2017-08-20T03:06:11.485Z,99.33
2017-08-20T03:08:39.875Z,184.87
2017-08-20T03:11:09.038Z,252.77
2017-08-20T03:13:37.463Z,85.13
2017-08-20T03:16:05.848Z,124.60
2017-08-20T03:18:34.277Z,114.03
2017-08-20T03:21:02.729Z,135.53
2017-08-20T03:23:31.146Z,156.37
2017-08-20T03:25:59.537Z,70.80
2017-08-20T03:28:28.734Z,61.43
2017-08-20T03:30:57.166Z,69.47
2017-08-20T03:33:25.599Z,67.23
2017-08-20T03:35:54.799Z,50.47
2017-08-20T03:38:23.288Z,62.83
2017-08-20T03:40:52.483Z,50.40
2017-08-20T03:43:21.633Z,47.70
2017-08-20T03:45:50.088Z,51.67
2017-08-20T03:48:18.518Z,50.43
2017-08-20T03:50:47.798Z,41.83
2017-08-20T03:53:16.225Z,48.17
2017-08-20T03:55:44.735Z,46.20
2017-08-20T03:58:13.108Z,49.57
2017-08-20T04:00:41.509Z,43.60
2017-08-20T04:03:09.942Z,44.33
2017-08-20T04:05:38.377Z,43.13
2017-08-20T04:08:06.822Z,50.30
2017-08-20T04:10:35.258Z,42.50
2017-08-20T04:13:03.678Z,42.77
2017-08-20T04:15:32.065Z,41.83
2017-08-20T04:18:00.492Z,44.20
2017-08-20T04:20:28.947Z,39.20
2017-08-20T04:22:57.314Z,44.70
2017-08-20T04:25:25.858Z,31.40
2017-08-20T04:27:54.225Z,48.90
2017-08-20T04:30:22.649Z,43.80
2017-08-20T04:32:51.035Z,38.80
2017-08-20T04:35:19.636Z,35.10
2017-08-20T04:37:48.202Z,35.57
2017-08-20T04:40:16.762Z,37.07
2017-08-20T04:42:45.287Z,33.77
2017-08-20T04:45:13.686Z,32.23
2017-08-20T04:47:42.096Z,37.77
2017-08-20T04:50:10.553Z,43.83
2017-08-20T04:52:39.036Z,31.30
2017-08-20T04:55:07.477Z,41.90
2017-08-20T04:57:35.877Z,54.50
2017-08-20T05:00:04.276Z,50.73
2017-08-20T05:02:32.703Z,38.07
2017-08-20T05:05:01.101Z,45.17
2017-08-20T05:07:29.474Z,36.50
2017-08-20T05:09:57.888Z,40.97
2017-08-20T05:12:26.320Z,39.67
2017-08-20T05:14:54.781Z,38.00
2017-08-20T05:17:23.195Z,34.43
2017-08-20T05:19:51.668Z,28.03
2017-08-20T05:22:20.053Z,31.00
2017-08-20T05:24:48.426Z,43.90
2017-08-20T05:27:16.866Z,33.60
2017-08-20T05:29:46.082Z,35.27
2017-08-20T05:32:14.466Z,38.33
2017-08-20T05:34:42.871Z,36.63
2017-08-20T05:37:11.355Z,31.83
2017-08-20T05:39:39.724Z,20.57
2017-08-20T05:42:08.163Z,35.93
2017-08-20T05:44:36.553Z,28.50
2017-08-20T05:47:04.931Z,29.20
2017-08-20T05:49:33.355Z,39.73
2017-08-20T05:52:01.741Z,29.67
2017-08-20T05:54:30.207Z,27.90
2017-08-20T05:56:58.606Z,19.10
2017-08-20T05:59:27.024Z,30.60
2017-08-20T06:01:55.416Z,30.87
2017-08-20T06:04:24.710Z,32.10
2017-08-20T06:06:53.108Z,26.90
2017-08-20T06:09:21.477Z,29.40
2017-08-20T06:11:49.916Z,29.87
2017-08-20T06:14:18.327Z,24.60
2017-08-20T06:16:46.729Z,23.13
2017-08-20T06:19:15.171Z,21.23
2017-08-20T06:21:44.356Z,19.53
2017-08-20T06:24:12.754Z,18.17
2017-08-20T06:26:41.184Z,28.13
2017-08-20T06:29:09.648Z,21.13
2017-08-20T06:31:38.134Z,20.80
2017-08-20T06:34:06.655Z,15.20
2017-08-20T06:36:35.065Z,20.67
2017-08-20T06:39:03.531Z,18.50
2017-08-20T06:41:32.659Z,13.30
2017-08-20T06:44:01.104Z,11.67
2017-08-20T06:46:29.487Z,13.93
2017-08-20T06:48:57.912Z,16.67
2017-08-20T06:51:26.289Z,15.97
2017-08-20T06:53:54.720Z,16.27
2017-08-20T06:56:23.873Z,12.33
2017-08-20T06:58:52.298Z,10.40
2017-08-20T07:01:21.509Z,13.17
2017-08-20T07:03:49.898Z,13.93
2017-08-20T07:06:18.649Z,14.70
2017-08-20T07:08:47.122Z,14.23
2017-08-20T07:11:16.341Z,16.43
2017-08-20T07:13:45.542Z,10.93
2017-08-20T07:16:14.031Z,18.20
2017-08-20T07:18:42.423Z,12.80
2017-08-20T07:21:10.842Z,15.20
2017-08-20T07:23:39.234Z,13.57
2017-08-20T07:26:07.661Z,12.47
2017-08-20T07:28:36.057Z,13.20
2017-08-20T07:31:04.545Z,12.10
2017-08-20T07:33:32.928Z,15.00
2017-08-20T07:36:01.363Z,15.13
2017-08-20T07:38:29.750Z,14.10
2017-08-20T07:40:58.163Z,10.87
2017-08-20T07:43:26.639Z,12.70
2017-08-20T07:45:55.026Z,17.30
2017-08-20T07:48:23.425Z,10.97
2017-08-20T07:50:51.866Z,12.30
2017-08-20T07:53:20.274Z,17.80
2017-08-20T07:55:48.699Z,15.93
2017-08-20T07:58:17.144Z,32.87
2017-08-20T08:00:45.640Z,19.47
2017-08-20T08:03:14.123Z,16.47
2017-08-20T08:05:42.532Z,21.53
2017-08-20T08:08:10.992Z,22.10
2017-08-20T08:10:39.381Z,17.43
2017-08-20T08:13:07.822Z,19.23
2017-08-20T08:15:36.232Z,21.90
2017-08-20T08:18:05.378Z,17.67
2017-08-20T08:20:33.886Z,22.60
2017-08-20T08:23:02.380Z,18.90
2017-08-20T08:25:31.534Z,16.20
2017-08-20T08:27:59.962Z,20.10
2017-08-20T08:30:29.165Z,17.30
2017-08-20T08:32:57.630Z,14.23
2017-08-20T08:35:26.902Z,21.93
2017-08-20T08:37:55.293Z,15.80
2017-08-20T08:40:23.705Z,20.47
2017-08-20T08:42:52.126Z,23.90
2017-08-20T08:45:20.566Z,17.00
2017-08-20T08:47:48.958Z,20.00
2017-08-20T08:50:17.392Z,22.00
2017-08-20T08:52:45.769Z,12.70
2017-08-20T08:55:14.230Z,12.87
2017-08-20T08:57:44.222Z,24.00
2017-08-20T09:00:12.696Z,13.40
2017-08-20T09:02:41.094Z,12.97
2017-08-20T09:05:09.560Z,16.10
2017-08-20T09:07:37.971Z,14.63
2017-08-20T09:10:06.472Z,14.50
2017-08-20T09:12:34.844Z,17.77
2017-08-20T09:15:03.258Z,11.27
2017-08-20T09:17:31.750Z,26.13
2017-08-20T09:20:00.166Z,16.67
2017-08-20T09:22:28.542Z,9.47
2017-08-20T09:24:56.981Z,10.33
2017-08-20T09:27:25.509Z,15.70
2017-08-20T09:29:53.911Z,10.90
2017-08-20T09:32:22.329Z,16.87
2017-08-20T09:34:50.768Z,8.87
2017-08-20T09:37:19.137Z,9.97
2017-08-20T09:39:47.582Z,12.60
2017-08-20T09:42:16.615Z,8.53
2017-08-20T09:44:44.991Z,11.70
2017-08-20T09:47:13.423Z,14.03
2017-08-20T09:49:41.821Z,12.10
2017-08-20T09:52:10.279Z,13.50
2017-08-20T09:54:38.768Z,21.00
2017-08-20T09:57:07.187Z,12.93
2017-08-20T09:59:35.595Z,9.87
2017-08-20T10:02:04.091Z,15.20
2017-08-20T10:04:32.475Z,8.70
2017-08-20T10:07:00.860Z,6.60
2017-08-20T10:09:29.331Z,9.83
2017-08-20T10:11:57.746Z,9.13
2017-08-20T10:14:26.193Z,10.40
2017-08-20T10:16:54.706Z,10.03
2017-08-20T10:19:23.169Z,5.83
2017-08-20T10:21:51.537Z,17.23
2017-08-20T10:24:19.925Z,8.40
2017-08-20T10:26:48.431Z,7.57
2017-08-20T10:29:16.810Z,8.13
2017-08-20T10:31:45.276Z,15.87
2017-08-20T10:34:13.669Z,11.13
2017-08-20T10:36:42.079Z,16.23
2017-08-20T10:39:10.519Z,9.03
2017-08-20T10:41:38.975Z,11.63
2017-08-20T10:44:07.453Z,11.20
2017-08-20T10:46:35.812Z,14.50
2017-08-20T10:49:04.304Z,11.20
2017-08-20T10:51:32.701Z,5.87
2017-08-20T10:54:01.155Z,8.47
2017-08-20T10:56:29.620Z,12.13
2017-08-20T10:58:58.800Z,14.57
2017-08-20T11:01:27.210Z,12.40
2017-08-20T11:03:56.386Z,12.20
2017-08-20T11:06:24.802Z,12.43
2017-08-20T11:08:53.225Z,13.80
2017-08-20T11:11:21.657Z,6.60
2017-08-20T11:13:50.233Z,8.13
2017-08-20T11:16:18.632Z,8.93
2017-08-20T11:18:47.097Z,11.00
2017-08-20T11:21:15.495Z,9.47
2017-08-20T11:23:43.873Z,7.87
2017-08-20T11:26:12.310Z,6.80
2017-08-20T11:28:40.678Z,9.10
2017-08-20T11:31:09.158Z,14.67
2017-08-20T11:33:37.548Z,6.83
2017-08-20T11:36:05.990Z,9.00
2017-08-20T11:38:34.431Z,5.63
2017-08-20T11:41:02.828Z,4.03
2017-08-20T11:43:31.347Z,6.93
2017-08-20T11:45:59.804Z,9.40
2017-08-20T11:48:28.257Z,12.47
2017-08-20T11:50:56.999Z,8.73
2017-08-20T11:53:25.399Z,9.63
2017-08-20T11:55:53.837Z,9.90
2017-08-20T11:58:22.221Z,5.93
2017-08-20T12:00:50.696Z,6.33
2017-08-20T12:03:19.121Z,4.03
2017-08-20T12:05:47.499Z,6.80
2017-08-20T12:08:15.941Z,9.50
2017-08-20T12:10:44.322Z,8.30
2017-08-20T12:13:12.748Z,9.10
2017-08-20T12:15:41.158Z,6.07
2017-08-20T12:18:09.582Z,13.33
2017-08-20T12:20:37.997Z,6.03
2017-08-20T12:23:06.489Z,6.53
2017-08-20T12:25:34.941Z,13.40
2017-08-20T12:28:03.374Z,6.17
2017-08-20T12:30:31.801Z,11.33
2017-08-20T12:33:00.209Z,7.30
2017-08-20T12:35:28.605Z,5.90
2017-08-20T12:37:57.038Z,4.40
2017-08-20T12:40:25.427Z,6.30
2017-08-20T12:42:53.820Z,3.00
2017-08-20T12:45:22.296Z,4.37
2017-08-20T12:47:50.683Z,8.87
2017-08-20T12:50:19.157Z,3.20
2017-08-20T12:52:47.543Z,8.03
2017-08-20T12:55:16.006Z,3.97
2017-08-20T12:57:44.957Z,8.60
2017-08-20T13:00:13.364Z,3.60
2017-08-20T13:02:41.900Z,7.03
2017-08-20T13:05:10.379Z,8.03
2017-08-20T13:07:38.986Z,6.90
2017-08-20T13:10:07.381Z,2.80
2017-08-20T13:12:36.257Z,3.00
2017-08-20T13:15:04.818Z,7.67
2017-08-20T13:17:33.299Z,5.77
2017-08-20T13:20:01.749Z,4.63
2017-08-20T13:22:30.137Z,6.47
2017-08-20T13:24:58.584Z,5.33
2017-08-20T13:27:27.731Z,4.57
2017-08-20T13:29:56.192Z,7.47
2017-08-20T13:32:24.680Z,7.10
2017-08-20T13:34:53.127Z,4.57
2017-08-20T13:37:21.532Z,4.43
2017-08-20T13:39:49.929Z,3.70
2017-08-20T13:42:19.679Z,9.30
2017-08-20T13:44:48.243Z,8.20
2017-08-20T13:47:16.660Z,7.23
2017-08-20T13:49:45.049Z,7.70
2017-08-20T13:52:13.521Z,11.77
2017-08-20T13:54:41.922Z,11.20
2017-08-20T13:57:10.396Z,5.90
2017-08-20T13:59:38.783Z,8.60
2017-08-20T14:02:07.220Z,8.73
2017-08-20T14:04:36.482Z,8.57
2017-08-20T14:07:04.923Z,6.13
2017-08-20T14:09:33.648Z,10.23
2017-08-20T14:12:02.103Z,14.77
2017-08-20T14:14:31.916Z,4.57
2017-08-20T14:17:00.308Z,5.30
2017-08-20T14:19:28.758Z,9.00
2017-08-20T14:21:57.767Z,5.63
2017-08-20T14:24:26.149Z,2.97
2017-08-20T14:26:54.605Z,5.53
2017-08-20T14:29:22.975Z,5.37
2017-08-20T14:31:51.840Z,11.33
2017-08-20T14:34:20.223Z,4.40
2017-08-20T14:36:48.713Z,6.43
2017-08-20T14:39:17.188Z,9.80
2017-08-20T14:41:45.630Z,8.23
2017-08-20T14:44:14.102Z,7.80
2017-08-20T14:46:42.465Z,5.20
2017-08-20T14:49:10.839Z,6.57
2017-08-20T14:51:39.387Z,2.97
2017-08-20T14:54:07.770Z,12.17
2017-08-20T14:56:36.181Z,5.63
2017-08-20T14:59:04.633Z,5.03
2017-08-20T15:01:33.063Z,4.00
2017-08-20T15:04:04.532Z,10.57
2017-08-20T15:06:33.184Z,4.60
2017-08-20T15:09:01.610Z,10.43
2017-08-20T15:11:30.037Z,3.97
2017-08-20T15:13:58.469Z,5.97
2017-08-20T15:16:26.886Z,8.50
2017-08-20T15:18:55.285Z,5.70
2017-08-20T15:21:23.778Z,6.50
2017-08-20T15:23:52.543Z,8.93
2017-08-20T15:26:23.867Z,7.70
2017-08-20T15:28:54.353Z,2.40
2017-08-20T15:31:22.819Z,4.00
2017-08-20T15:33:54.218Z,7.40
2017-08-20T15:36:22.724Z,10.53
2017-08-20T15:38:51.206Z,5.13
2017-08-20T15:41:20.346Z,5.00
2017-08-20T15:43:49.083Z,5.70
2017-08-20T15:46:18.339Z,5.70
2017-08-20T15:48:46.742Z,7.27
2017-08-20T15:51:15.222Z,9.03
2017-08-20T15:53:43.646Z,10.27
2017-08-20T15:56:12.117Z,4.20
2017-08-20T15:58:40.486Z,7.57
2017-08-20T16:01:10.098Z,5.90
2017-08-20T16:03:38.568Z,5.73
2017-08-20T16:06:06.960Z,6.97
2017-08-20T16:08:35.513Z,4.87
2017-08-20T16:11:03.982Z,7.87
2017-08-20T16:13:32.581Z,5.27
2017-08-20T16:16:01.015Z,5.80
2017-08-20T16:18:29.466Z,5.07
2017-08-20T16:20:57.869Z,4.83
2017-08-20T16:23:26.283Z,2.57
2017-08-20T16:25:54.693Z,7.53
2017-08-20T16:28:23.175Z,6.03
2017-08-20T16:30:51.570Z,2.30
2017-08-20T16:33:19.961Z,6.93
2017-08-20T16:35:48.405Z,6.20
2017-08-20T16:38:17.947Z,9.13
2017-08-20T16:40:46.400Z,6.50
2017-08-20T16:43:15.605Z,3.27
2017-08-20T16:45:44.045Z,33.97
2017-08-20T16:48:12.427Z,8.27
2017-08-20T16:50:40.890Z,6.67
2017-08-20T16:53:09.357Z,8.50
2017-08-20T16:55:37.777Z,4.57
2017-08-20T16:58:06.171Z,4.73
2017-08-20T17:00:34.564Z,6.67
2017-08-20T17:03:03.093Z,7.10
2017-08-20T17:05:31.493Z,8.67
2017-08-20T17:07:59.902Z,7.83
2017-08-20T17:10:28.519Z,11.00
2017-08-20T17:12:56.970Z,12.33
2017-08-20T17:15:25.359Z,5.60
2017-08-20T17:17:53.753Z,4.70
2017-08-20T17:20:22.231Z,4.70
2017-08-20T17:22:50.626Z,9.40
2017-08-20T17:25:19.031Z,5.50
2017-08-20T17:27:47.487Z,6.33
2017-08-20T17:30:15.878Z,9.07
2017-08-20T17:32:44.321Z,11.57
2017-08-20T17:35:12.752Z,5.47
2017-08-20T17:37:41.193Z,8.77
2017-08-20T17:40:09.630Z,7.57
2017-08-20T17:42:38.016Z,12.43
2017-08-20T17:45:06.479Z,9.20
2017-08-20T17:47:35.658Z,13.50
2017-08-20T17:50:04.072Z,16.87
2017-08-20T17:52:32.514Z,14.23
2017-08-20T17:55:00.939Z,6.67
2017-08-20T17:57:29.304Z,7.57
2017-08-20T17:59:57.761Z,5.80
2017-08-20T18:02:26.925Z,9.53
2017-08-20T18:04:55.575Z,6.67
2017-08-20T18:07:24.003Z,8.00
2017-08-20T18:09:52.388Z,6.47
2017-08-20T18:12:20.844Z,10.70
2017-08-20T18:14:49.327Z,3.83
2017-08-20T18:17:17.716Z,7.27
2017-08-20T18:19:46.957Z,8.63
2017-08-20T18:22:16.155Z,5.70
2017-08-20T18:24:44.607Z,8.93
2017-08-20T18:27:13.099Z,7.47
2017-08-20T18:29:41.521Z,11.63
2017-08-20T18:32:09.949Z,5.93
2017-08-20T18:34:38.357Z,7.80
2017-08-20T18:37:07.596Z,8.43
2017-08-20T18:39:36.052Z,4.93
2017-08-20T18:42:04.506Z,5.20
2017-08-20T18:44:32.937Z,8.07
2017-08-20T18:47:01.363Z,12.83
2017-08-20T18:49:30.630Z,7.77
2017-08-20T18:51:59.025Z,7.43
2017-08-20T18:54:27.519Z,7.10
2017-08-20T18:56:56.684Z,6.43
2017-08-20T18:59:25.140Z,7.10
2017-08-20T19:01:54.111Z,11.77
2017-08-20T19:04:23.323Z,6.33
2017-08-20T19:06:51.839Z,9.17
2017-08-20T19:09:21.369Z,11.60
2017-08-20T19:11:49.934Z,19.27
2017-08-20T19:14:22.320Z,9.90
2017-08-20T19:16:50.947Z,8.20
2017-08-20T19:19:19.541Z,12.40
2017-08-20T19:21:48.286Z,11.10
2017-08-20T19:24:17.155Z,10.13
2017-08-20T19:26:45.563Z,9.30
2017-08-20T19:29:14.108Z,14.23
2017-08-20T19:31:42.645Z,9.87
2017-08-20T19:34:11.131Z,9.30
2017-08-20T19:36:39.699Z,17.67
2017-08-20T19:39:08.904Z,11.97
2017-08-20T19:41:37.603Z,11.27
2017-08-20T19:44:06.200Z,11.70
2017-08-20T19:46:34.771Z,16.20
2017-08-20T19:49:03.235Z,14.73
2017-08-20T19:51:31.774Z,21.17
2017-08-20T19:54:00.577Z,23.73
2017-08-20T19:56:29.164Z,21.87
2017-08-20T19:58:58.152Z,21.43
2017-08-20T20:01:26.608Z,20.40
2017-08-20T20:03:55.106Z,16.50
2017-08-20T20:06:23.581Z,22.77
2017-08-20T20:08:52.306Z,21.03
2017-08-20T20:11:20.846Z,14.83
2017-08-20T20:13:49.468Z,19.67
2017-08-20T20:16:18.093Z,15.63
2017-08-20T20:18:46.769Z,15.77
2017-08-20T20:21:15.353Z,13.07
2017-08-20T20:23:44.464Z,13.33
2017-08-20T20:26:13.143Z,12.60
2017-08-20T20:28:41.895Z,26.43
2017-08-20T20:31:11.379Z,14.00
2017-08-20T20:33:39.999Z,10.67
2017-08-20T20:36:09.507Z,12.23
2017-08-20T20:38:38.079Z,17.60
2017-08-20T20:41:06.729Z,14.63
2017-08-20T20:43:35.417Z,11.00
2017-08-20T20:46:04.976Z,9.10
2017-08-20T20:48:33.644Z,8.43
2017-08-20T20:51:02.365Z,13.47
2017-08-20T20:53:31.292Z,12.80
2017-08-20T20:55:59.940Z,15.60
2017-08-20T20:58:28.549Z,12.40
2017-08-20T21:00:57.178Z,12.53
2017-08-20T21:03:26.630Z,10.80
2017-08-20T21:05:55.370Z,14.33
2017-08-20T21:08:24.070Z,23.63
2017-08-20T21:10:52.568Z,11.40
2017-08-20T21:13:21.060Z,12.67
2017-08-20T21:15:49.615Z,10.67
2017-08-20T21:18:18.117Z,17.60
2017-08-20T21:20:46.581Z,13.00
2017-08-20T21:23:15.066Z,9.07
2017-08-20T21:25:43.802Z,17.20
2017-08-20T21:28:13.060Z,7.33
2017-08-20T21:30:41.598Z,11.70
2017-08-20T21:33:10.088Z,8.30
2017-08-20T21:35:38.507Z,15.03
2017-08-20T21:38:06.949Z,12.57
2017-08-20T21:40:35.431Z,8.67
2017-08-20T21:43:03.811Z,10.50
2017-08-20T21:45:32.306Z,11.33
2017-08-20T21:48:00.719Z,10.33
2017-08-20T21:50:29.108Z,16.20
2017-08-20T21:52:57.524Z,8.90
2017-08-20T21:55:25.912Z,11.70
2017-08-20T21:57:54.358Z,13.57
2017-08-20T22:00:22.766Z,10.67
2017-08-20T22:02:51.178Z,10.80
2017-08-20T22:05:19.634Z,10.57
2017-08-20T22:07:48.042Z,8.33
2017-08-20T22:10:16.427Z,8.57
2017-08-20T22:12:46.169Z,12.23
2017-08-20T22:15:18.889Z,6.93
2017-08-20T22:17:47.372Z,6.83
2017-08-20T22:20:15.805Z,13.13
2017-08-20T22:22:44.273Z,18.53
2017-08-20T22:25:12.653Z,7.93
2017-08-20T22:27:41.090Z,10.80
2017-08-20T22:30:09.492Z,9.60
2017-08-20T22:32:37.923Z,13.30
2017-08-20T22:35:06.369Z,12.30
2017-08-20T22:37:34.745Z,12.70
2017-08-20T22:40:03.163Z,15.43
2017-08-20T22:42:31.619Z,12.73
2017-08-20T22:45:00.072Z,7.80
2017-08-20T22:47:28.447Z,8.10
2017-08-20T22:49:56.842Z,17.57
2017-08-20T22:52:25.288Z,9.00
2017-08-20T22:54:53.739Z,8.80
2017-08-20T22:57:22.955Z,15.53
2017-08-20T22:59:51.346Z,19.10
2017-08-20T23:02:19.826Z,14.73
2017-08-20T23:04:48.200Z,8.73
2017-08-20T23:07:16.679Z,11.93
2017-08-20T23:09:45.099Z,17.67
2017-08-20T23:12:13.499Z,13.90
2017-08-20T23:14:41.925Z,12.43
2017-08-20T23:17:10.313Z,8.03
2017-08-20T23:19:38.748Z,22.83
2017-08-20T23:22:07.886Z,16.33
2017-08-20T23:24:36.327Z,9.30
2017-08-20T23:27:05.491Z,19.60
2017-08-20T23:29:33.885Z,20.50
2017-08-20T23:32:02.289Z,13.03
2017-08-20T23:34:30.714Z,11.97
2017-08-20T23:36:59.227Z,10.10
2017-08-20T23:39:28.441Z,10.37
2017-08-20T23:41:57.646Z,11.70
2017-08-20T23:44:26.805Z,7.87
2017-08-20T23:46:56.069Z,10.67
2017-08-20T23:49:24.462Z,11.80
2017-08-20T23:51:52.880Z,13.93
2017-08-20T23:54:22.068Z,22.50
2017-08-20T23:56:50.536Z,9.00
2017-08-20T23:59:18.936Z,8.83
